sensor_id;sensor_type;location;lat;lon;timestamp;pressure;altitude;pressure_sealevel;temperature;humidity
11605;BME280;5858;43.076;25.626;2023-04-09T00:01:37;99692.75;;;7.05;97.39
11605;BME280;5858;43.076;25.626;2023-04-09T00:04:04;99699.84;;;7.14;97.80
11605;BME280;5858;43.076;25.626;2023-04-09T00:06:31;99654.97;;;7.02;97.27
11605;BME280;5858;43.076;25.626;2023-04-09T00:08:59;99681.38;;;7.13;97.31
11605;BME280;5858;43.076;25.626;2023-04-09T00:11:27;99669.66;;;7.06;97.21
11605;BME280;5858;43.076;25.626;2023-04-09T00:13:54;99683.81;;;7.24;97.03
11605;BME280;5858;43.076;25.626;2023-04-09T00:16:21;99685.63;;;7.23;97.03
11605;BME280;5858;43.076;25.626;2023-04-09T00:18:48;99672.25;;;7.15;97.50
11605;BME280;5858;43.076;25.626;2023-04-09T00:21:16;99697.56;;;7.37;96.73
11605;BME280;5858;43.076;25.626;2023-04-09T00:23:43;99709.97;;;7.29;97.15
11605;BME280;5858;43.076;25.626;2023-04-09T00:26:10;99704.03;;;7.35;97.46
11605;BME280;5858;43.076;25.626;2023-04-09T00:28:38;99712.22;;;7.41;97.13
11605;BME280;5858;43.076;25.626;2023-04-09T00:31:05;99707.00;;;7.32;96.48
11605;BME280;5858;43.076;25.626;2023-04-09T00:33:32;99678.47;;;7.24;96.72
11605;BME280;5858;43.076;25.626;2023-04-09T00:35:59;99685.09;;;7.20;97.39
11605;BME280;5858;43.076;25.626;2023-04-09T00:38:28;99710.41;;;7.42;97.62
11605;BME280;5858;43.076;25.626;2023-04-09T00:40:56;99672.31;;;7.23;96.53
11605;BME280;5858;43.076;25.626;2023-04-09T00:43:24;99714.44;;;7.46;97.04
11605;BME280;5858;43.076;25.626;2023-04-09T00:45:53;99711.91;;;7.44;97.19
11605;BME280;5858;43.076;25.626;2023-04-09T00:48:20;99707.81;;;7.50;96.50
11605;BME280;5858;43.076;25.626;2023-04-09T00:50:48;99705.13;;;7.50;96.93
11605;BME280;5858;43.076;25.626;2023-04-09T00:53:15;99688.56;;;7.38;96.94
11605;BME280;5858;43.076;25.626;2023-04-09T00:55:43;99704.47;;;7.48;97.15
11605;BME280;5858;43.076;25.626;2023-04-09T00:58:10;99702.25;;;7.43;97.13
11605;BME280;5858;43.076;25.626;2023-04-09T01:00:37;99699.38;;;7.37;96.91
11605;BME280;5858;43.076;25.626;2023-04-09T01:03:06;99698.44;;;7.46;96.88
11605;BME280;5858;43.076;25.626;2023-04-09T01:05:39;99702.06;;;7.19;97.22
11605;BME280;5858;43.076;25.626;2023-04-09T01:08:16;99656.97;;;6.82;98.67
11605;BME280;5858;43.076;25.626;2023-04-09T01:10:48;99698.56;;;7.18;97.84
11605;BME280;5858;43.076;25.626;2023-04-09T01:13:27;99694.75;;;7.21;97.01
11605;BME280;5858;43.076;25.626;2023-04-09T01:15:58;99699.09;;;7.22;97.00
11605;BME280;5858;43.076;25.626;2023-04-09T01:18:30;99699.69;;;7.16;96.32
11605;BME280;5858;43.076;25.626;2023-04-09T01:21:05;99690.72;;;7.17;96.40
11605;BME280;5858;43.076;25.626;2023-04-09T01:23:44;99692.75;;;7.05;96.76
11605;BME280;5858;43.076;25.626;2023-04-09T01:29:02;99696.72;;;7.01;96.39
11605;BME280;5858;43.076;25.626;2023-04-09T01:31:34;99691.00;;;6.96;96.41
11605;BME280;5858;43.076;25.626;2023-04-09T01:34:02;99699.28;;;6.93;97.01
11605;BME280;5858;43.076;25.626;2023-04-09T01:36:31;99700.81;;;6.78;97.15
11605;BME280;5858;43.076;25.626;2023-04-09T01:39:00;99694.41;;;6.71;98.00
11605;BME280;5858;43.076;25.626;2023-04-09T01:41:30;99660.91;;;6.50;97.43
11605;BME280;5858;43.076;25.626;2023-04-09T01:43:59;99683.56;;;6.54;97.41
11605;BME280;5858;43.076;25.626;2023-04-09T01:46:28;99665.31;;;6.42;97.55
11605;BME280;5858;43.076;25.626;2023-04-09T01:48:55;99692.28;;;6.47;97.77
11605;BME280;5858;43.076;25.626;2023-04-09T01:51:23;99691.50;;;6.37;97.92
11605;BME280;5858;43.076;25.626;2023-04-09T01:53:51;99699.81;;;6.51;97.62
11605;BME280;5858;43.076;25.626;2023-04-09T01:56:18;99704.50;;;6.40;97.36
11605;BME280;5858;43.076;25.626;2023-04-09T01:58:45;99685.00;;;6.21;97.18
11605;BME280;5858;43.076;25.626;2023-04-09T02:01:15;99687.97;;;6.09;98.37
11605;BME280;5858;43.076;25.626;2023-04-09T02:03:51;99656.03;;;5.81;99.02
11605;BME280;5858;43.076;25.626;2023-04-09T02:06:24;99676.72;;;5.78;100.00
11605;BME280;5858;43.076;25.626;2023-04-09T02:08:54;99684.25;;;5.82;100.00
11605;BME280;5858;43.076;25.626;2023-04-09T02:11:25;99610.31;;;5.41;100.00
11605;BME280;5858;43.076;25.626;2023-04-09T02:13:55;99702.13;;;5.99;100.00
11605;BME280;5858;43.076;25.626;2023-04-09T02:16:24;99672.09;;;5.89;99.49
11605;BME280;5858;43.076;25.626;2023-04-09T02:18:54;99696.41;;;5.94;99.84
11605;BME280;5858;43.076;25.626;2023-04-09T02:21:21;99668.22;;;5.74;99.73
11605;BME280;5858;43.076;25.626;2023-04-09T02:23:48;99692.06;;;5.93;99.83
11605;BME280;5858;43.076;25.626;2023-04-09T02:26:15;99673.38;;;5.76;99.60
11605;BME280;5858;43.076;25.626;2023-04-09T02:28:42;99685.38;;;5.80;99.37
11605;BME280;5858;43.076;25.626;2023-04-09T02:31:09;99709.00;;;5.83;100.00
11605;BME280;5858;43.076;25.626;2023-04-09T02:33:37;99702.44;;;5.77;100.00
11605;BME280;5858;43.076;25.626;2023-04-09T02:36:05;99634.06;;;5.32;99.77
11605;BME280;5858;43.076;25.626;2023-04-09T02:38:32;99700.34;;;5.81;99.35
11605;BME280;5858;43.076;25.626;2023-04-09T02:40:59;99715.13;;;5.83;99.51
11605;BME280;5858;43.076;25.626;2023-04-09T02:43:28;99722.66;;;5.88;99.04
11605;BME280;5858;43.076;25.626;2023-04-09T02:45:55;99708.72;;;5.76;99.18
11605;BME280;5858;43.076;25.626;2023-04-09T02:48:22;99662.50;;;5.50;99.77
11605;BME280;5858;43.076;25.626;2023-04-09T02:50:48;99710.53;;;5.66;99.97
11605;BME280;5858;43.076;25.626;2023-04-09T02:53:17;99709.84;;;5.64;99.80
11605;BME280;5858;43.076;25.626;2023-04-09T02:55:45;99715.28;;;5.62;100.00
11605;BME280;5858;43.076;25.626;2023-04-09T02:58:13;99717.09;;;5.62;99.55
11605;BME280;5858;43.076;25.626;2023-04-09T03:00:40;99727.59;;;5.63;99.40
11605;BME280;5858;43.076;25.626;2023-04-09T03:03:07;99562.06;;;4.69;99.47
11605;BME280;5858;43.076;25.626;2023-04-09T03:05:34;99703.16;;;5.60;98.75
11605;BME280;5858;43.076;25.626;2023-04-09T03:08:01;99700.38;;;5.52;98.93
11605;BME280;5858;43.076;25.626;2023-04-09T03:10:29;99727.59;;;5.63;98.90
11605;BME280;5858;43.076;25.626;2023-04-09T03:12:57;99722.69;;;5.59;98.95
11605;BME280;5858;43.076;25.626;2023-04-09T03:15:23;99730.41;;;5.52;99.19
11605;BME280;5858;43.076;25.626;2023-04-09T03:17:50;99730.53;;;5.51;99.01
11605;BME280;5858;43.076;25.626;2023-04-09T03:20:18;99733.34;;;5.49;98.53
11605;BME280;5858;43.076;25.626;2023-04-09T03:22:45;99730.94;;;5.56;98.77
11605;BME280;5858;43.076;25.626;2023-04-09T03:25:12;99735.28;;;5.57;98.42
11605;BME280;5858;43.076;25.626;2023-04-09T03:27:41;99737.78;;;5.58;97.91
11605;BME280;5858;43.076;25.626;2023-04-09T03:30:09;99723.97;;;5.45;98.09
11605;BME280;5858;43.076;25.626;2023-04-09T03:32:36;99713.81;;;5.21;97.72
11605;BME280;5858;43.076;25.626;2023-04-09T03:35:03;99719.25;;;5.29;97.62
11605;BME280;5858;43.076;25.626;2023-04-09T03:37:30;99737.41;;;5.34;97.08
11605;BME280;5858;43.076;25.626;2023-04-09T03:39:57;99753.41;;;5.13;97.28
11605;BME280;5858;43.076;25.626;2023-04-09T03:42:27;99648.50;;;4.41;98.81
11605;BME280;5858;43.076;25.626;2023-04-09T03:44:55;99744.03;;;4.90;100.00
11605;BME280;5858;43.076;25.626;2023-04-09T03:47:22;99738.03;;;4.88;100.00
11605;BME280;5858;43.076;25.626;2023-04-09T03:49:49;99710.06;;;4.64;99.69
11605;BME280;5858;43.076;25.626;2023-04-09T03:52:16;99728.03;;;4.61;99.81
11605;BME280;5858;43.076;25.626;2023-04-09T03:54:43;99737.47;;;4.94;99.99
11605;BME280;5858;43.076;25.626;2023-04-09T03:57:10;99718.63;;;4.87;100.00
11605;BME280;5858;43.076;25.626;2023-04-09T03:59:37;99731.03;;;4.77;100.00
11605;BME280;5858;43.076;25.626;2023-04-09T04:02:06;99736.22;;;4.98;100.00
11605;BME280;5858;43.076;25.626;2023-04-09T04:04:33;99722.97;;;5.07;99.21
11605;BME280;5858;43.076;25.626;2023-04-09T04:07:01;99722.28;;;5.15;98.95
11605;BME280;5858;43.076;25.626;2023-04-09T04:09:29;99751.06;;;5.39;98.60
11605;BME280;5858;43.076;25.626;2023-04-09T04:11:56;99747.03;;;5.45;98.50
11605;BME280;5858;43.076;25.626;2023-04-09T04:14:23;99745.06;;;5.27;98.75
11605;BME280;5858;43.076;25.626;2023-04-09T04:16:53;99748.97;;;5.52;97.54
11605;BME280;5858;43.076;25.626;2023-04-09T04:19:21;99751.91;;;5.68;97.02
11605;BME280;5858;43.076;25.626;2023-04-09T04:21:48;99747.16;;;5.82;96.15
11605;BME280;5858;43.076;25.626;2023-04-09T04:24:15;99733.31;;;5.78;96.24
11605;BME280;5858;43.076;25.626;2023-04-09T04:26:42;99731.63;;;5.87;95.71
11605;BME280;5858;43.076;25.626;2023-04-09T04:29:09;99727.84;;;5.99;95.06
11605;BME280;5858;43.076;25.626;2023-04-09T04:31:36;99735.81;;;5.99;95.11
11605;BME280;5858;43.076;25.626;2023-04-09T04:34:03;99730.50;;;5.99;94.79
11605;BME280;5858;43.076;25.626;2023-04-09T04:36:32;99715.00;;;5.94;94.21
11605;BME280;5858;43.076;25.626;2023-04-09T04:38:59;99757.28;;;6.25;94.51
11605;BME280;5858;43.076;25.626;2023-04-09T04:41:25;99722.22;;;6.12;93.92
11605;BME280;5858;43.076;25.626;2023-04-09T04:43:53;99769.75;;;6.52;93.22
11605;BME280;5858;43.076;25.626;2023-04-09T04:46:21;99732.16;;;6.47;92.56
11605;BME280;5858;43.076;25.626;2023-04-09T04:48:48;99766.25;;;7.06;91.11
11605;BME280;5858;43.076;25.626;2023-04-09T04:51:15;99753.31;;;7.21;90.51
11605;BME280;5858;43.076;25.626;2023-04-09T04:53:43;99727.91;;;7.26;88.99
11605;BME280;5858;43.076;25.626;2023-04-09T04:56:12;99775.59;;;7.55;88.48
11605;BME280;5858;43.076;25.626;2023-04-09T04:58:40;99776.34;;;7.83;87.49
11605;BME280;5858;43.076;25.626;2023-04-09T05:01:07;99762.13;;;7.75;87.47
11605;BME280;5858;43.076;25.626;2023-04-09T05:03:34;99774.31;;;8.03;86.54
11605;BME280;5858;43.076;25.626;2023-04-09T05:06:01;99763.09;;;8.17;86.43
11605;BME280;5858;43.076;25.626;2023-04-09T05:08:28;99763.13;;;8.43;85.35
11605;BME280;5858;43.076;25.626;2023-04-09T05:10:56;99779.78;;;8.71;84.65
11605;BME280;5858;43.076;25.626;2023-04-09T05:13:24;99779.91;;;9.04;83.00
11605;BME280;5858;43.076;25.626;2023-04-09T05:15:51;99750.88;;;9.01;81.88
11605;BME280;5858;43.076;25.626;2023-04-09T05:18:18;99786.50;;;9.42;81.90
11605;BME280;5858;43.076;25.626;2023-04-09T05:20:45;99779.03;;;9.78;80.04
11605;BME280;5858;43.076;25.626;2023-04-09T05:23:12;99788.56;;;9.97;79.39
11605;BME280;5858;43.076;25.626;2023-04-09T05:25:39;99789.06;;;10.41;77.24
11605;BME280;5858;43.076;25.626;2023-04-09T05:28:07;99782.28;;;10.69;75.00
11605;BME280;5858;43.076;25.626;2023-04-09T05:30:35;99778.03;;;10.83;73.26
11605;BME280;5858;43.076;25.626;2023-04-09T05:33:02;99776.03;;;10.85;71.30
11605;BME280;5858;43.076;25.626;2023-04-09T05:35:30;99786.25;;;11.21;71.63
11605;BME280;5858;43.076;25.626;2023-04-09T05:37:57;99778.63;;;11.32;69.85
11605;BME280;5858;43.076;25.626;2023-04-09T05:40:25;99787.38;;;11.57;69.20
11605;BME280;5858;43.076;25.626;2023-04-09T05:42:52;99790.94;;;11.73;68.83
11605;BME280;5858;43.076;25.626;2023-04-09T05:45:21;99799.59;;;12.06;67.60
11605;BME280;5858;43.076;25.626;2023-04-09T05:47:48;99783.81;;;12.25;64.85
11605;BME280;5858;43.076;25.626;2023-04-09T05:50:15;99783.22;;;12.38;63.56
11605;BME280;5858;43.076;25.626;2023-04-09T05:52:42;99751.94;;;12.45;62.98
11605;BME280;5858;43.076;25.626;2023-04-09T05:55:09;99780.97;;;13.01;60.61
11605;BME280;5858;43.076;25.626;2023-04-09T05:57:36;99767.16;;;13.18;59.43
11605;BME280;5858;43.076;25.626;2023-04-09T06:00:05;99764.53;;;13.40;56.50
11605;BME280;5858;43.076;25.626;2023-04-09T06:02:34;99761.50;;;13.49;56.71
11605;BME280;5858;43.076;25.626;2023-04-09T06:05:03;99747.44;;;13.26;56.53
11605;BME280;5858;43.076;25.626;2023-04-09T06:07:30;99775.59;;;13.30;57.75
11605;BME280;5858;43.076;25.626;2023-04-09T06:09:57;99772.00;;;13.44;57.37
11605;BME280;5858;43.076;25.626;2023-04-09T06:12:24;99774.41;;;13.75;57.65
11605;BME280;5858;43.076;25.626;2023-04-09T06:14:51;99757.69;;;13.59;55.53
11605;BME280;5858;43.076;25.626;2023-04-09T06:17:18;99775.03;;;13.99;55.79
11605;BME280;5858;43.076;25.626;2023-04-09T06:19:46;99774.69;;;14.08;52.09
11605;BME280;5858;43.076;25.626;2023-04-09T06:22:13;99761.78;;;14.25;54.54
11605;BME280;5858;43.076;25.626;2023-04-09T06:24:40;99773.22;;;14.62;52.87
11605;BME280;5858;43.076;25.626;2023-04-09T06:27:07;99764.03;;;14.49;52.72
11605;BME280;5858;43.076;25.626;2023-04-09T06:29:34;99775.84;;;14.83;52.80
11605;BME280;5858;43.076;25.626;2023-04-09T06:32:01;99775.66;;;14.85;50.29
11605;BME280;5858;43.076;25.626;2023-04-09T06:34:28;99750.44;;;14.30;52.58
11605;BME280;5858;43.076;25.626;2023-04-09T06:36:56;99777.41;;;13.66;54.49
11605;BME280;5858;43.076;25.626;2023-04-09T06:39:23;99773.59;;;13.39;58.50
11605;BME280;5858;43.076;25.626;2023-04-09T06:41:50;99756.59;;;13.02;58.84
11605;BME280;5858;43.076;25.626;2023-04-09T06:44:17;99772.22;;;12.77;60.61
11605;BME280;5858;43.076;25.626;2023-04-09T06:46:45;99763.66;;;12.74;61.65
11605;BME280;5858;43.076;25.626;2023-04-09T06:49:15;99762.28;;;12.63;61.88
11605;BME280;5858;43.076;25.626;2023-04-09T06:51:42;99758.94;;;12.61;62.11
11605;BME280;5858;43.076;25.626;2023-04-09T06:54:11;99761.81;;;12.74;62.24
11605;BME280;5858;43.076;25.626;2023-04-09T06:56:37;99765.81;;;12.64;60.78
11605;BME280;5858;43.076;25.626;2023-04-09T06:59:04;99755.53;;;12.82;60.54
11605;BME280;5858;43.076;25.626;2023-04-09T07:01:32;99760.44;;;12.78;59.96
11605;BME280;5858;43.076;25.626;2023-04-09T07:03:59;99763.66;;;12.88;60.53
11605;BME280;5858;43.076;25.626;2023-04-09T07:06:27;99752.31;;;13.08;59.48
11605;BME280;5858;43.076;25.626;2023-04-09T07:08:54;99757.97;;;13.28;55.22
11605;BME280;5858;43.076;25.626;2023-04-09T07:11:22;99736.56;;;13.34;52.98
11605;BME280;5858;43.076;25.626;2023-04-09T07:13:49;99762.81;;;13.75;54.38
11605;BME280;5858;43.076;25.626;2023-04-09T07:16:18;99748.34;;;13.76;51.62
11605;BME280;5858;43.076;25.626;2023-04-09T07:18:45;99764.41;;;13.91;48.91
11605;BME280;5858;43.076;25.626;2023-04-09T07:21:15;99662.72;;;13.30;48.35
11605;BME280;5858;43.076;25.626;2023-04-09T07:23:42;99750.41;;;14.02;48.38
11605;BME280;5858;43.076;25.626;2023-04-09T07:26:09;99758.06;;;14.26;47.95
11605;BME280;5858;43.076;25.626;2023-04-09T07:28:37;99763.13;;;14.14;47.05
11605;BME280;5858;43.076;25.626;2023-04-09T07:31:05;99715.38;;;13.95;47.35
11605;BME280;5858;43.076;25.626;2023-04-09T07:33:32;99740.56;;;14.15;45.34
11605;BME280;5858;43.076;25.626;2023-04-09T07:35:59;99739.25;;;14.05;44.39
11605;BME280;5858;43.076;25.626;2023-04-09T07:38:30;99707.38;;;14.02;45.73
11605;BME280;5858;43.076;25.626;2023-04-09T07:40:57;99755.19;;;14.28;46.39
11605;BME280;5858;43.076;25.626;2023-04-09T07:43:25;99749.44;;;14.37;45.45
11605;BME280;5858;43.076;25.626;2023-04-09T07:45:54;99732.63;;;14.63;47.38
11605;BME280;5858;43.076;25.626;2023-04-09T07:48:21;99724.84;;;14.75;44.92
11605;BME280;5858;43.076;25.626;2023-04-09T07:50:48;99728.78;;;14.72;44.55
11605;BME280;5858;43.076;25.626;2023-04-09T07:53:15;99751.25;;;14.58;44.24
11605;BME280;5858;43.076;25.626;2023-04-09T07:55:42;99738.72;;;14.72;44.41
11605;BME280;5858;43.076;25.626;2023-04-09T07:58:11;99752.13;;;15.13;44.75
11605;BME280;5858;43.076;25.626;2023-04-09T08:00:39;99730.84;;;15.25;43.47
11605;BME280;5858;43.076;25.626;2023-04-09T08:03:07;99753.47;;;15.30;45.45
11605;BME280;5858;43.076;25.626;2023-04-09T08:05:34;99739.78;;;15.38;45.33
11605;BME280;5858;43.076;25.626;2023-04-09T08:08:03;99730.13;;;15.64;45.22
11605;BME280;5858;43.076;25.626;2023-04-09T08:10:30;99723.28;;;15.68;45.73
11605;BME280;5858;43.076;25.626;2023-04-09T08:12:57;99750.13;;;15.28;42.99
11605;BME280;5858;43.076;25.626;2023-04-09T08:15:24;99723.88;;;14.89;43.01
11605;BME280;5858;43.076;25.626;2023-04-09T08:17:51;99728.22;;;14.90;44.15
11605;BME280;5858;43.076;25.626;2023-04-09T08:20:20;99730.88;;;14.84;46.25
11605;BME280;5858;43.076;25.626;2023-04-09T08:22:47;99698.84;;;14.61;46.70
11605;BME280;5858;43.076;25.626;2023-04-09T08:25:14;99700.25;;;14.50;47.00
11605;BME280;5858;43.076;25.626;2023-04-09T08:27:41;99710.78;;;14.45;47.21
11605;BME280;5858;43.076;25.626;2023-04-09T08:30:09;99734.25;;;14.58;47.33
11605;BME280;5858;43.076;25.626;2023-04-09T08:32:39;99735.53;;;14.62;48.05
11605;BME280;5858;43.076;25.626;2023-04-09T08:35:06;99737.66;;;14.38;48.88
11605;BME280;5858;43.076;25.626;2023-04-09T08:37:36;99690.16;;;13.96;51.08
11605;BME280;5858;43.076;25.626;2023-04-09T08:40:05;99743.75;;;14.19;50.88
11605;BME280;5858;43.076;25.626;2023-04-09T08:42:33;99749.94;;;14.20;50.83
11605;BME280;5858;43.076;25.626;2023-04-09T08:45:03;99752.66;;;14.20;51.36
11605;BME280;5858;43.076;25.626;2023-04-09T08:47:36;99732.06;;;14.40;50.57
11605;BME280;5858;43.076;25.626;2023-04-09T08:50:04;99736.75;;;14.59;50.17
11605;BME280;5858;43.076;25.626;2023-04-09T08:52:31;99748.47;;;14.73;50.22
11605;BME280;5858;43.076;25.626;2023-04-09T08:55:01;99732.59;;;14.57;49.50
11605;BME280;5858;43.076;25.626;2023-04-09T08:57:28;99742.72;;;14.89;45.25
11605;BME280;5858;43.076;25.626;2023-04-09T08:59:54;99693.31;;;14.34;43.73
11605;BME280;5858;43.076;25.626;2023-04-09T09:02:23;99693.47;;;14.61;42.32
11605;BME280;5858;43.076;25.626;2023-04-09T09:04:50;99674.75;;;14.46;40.97
11605;BME280;5858;43.076;25.626;2023-04-09T09:07:19;99742.44;;;14.71;38.15
11605;BME280;5858;43.076;25.626;2023-04-09T09:09:50;99714.88;;;14.69;37.17
11605;BME280;5858;43.076;25.626;2023-04-09T09:12:36;99700.88;;;14.52;33.67
11605;BME280;5858;43.076;25.626;2023-04-09T09:15:05;99719.28;;;14.83;37.77
11605;BME280;5858;43.076;25.626;2023-04-09T09:17:33;99701.06;;;14.92;40.35
11605;BME280;5858;43.076;25.626;2023-04-09T09:20:19;99718.06;;;14.92;35.24
11605;BME280;5858;43.076;25.626;2023-04-09T09:22:52;99703.34;;;14.95;36.96
11605;BME280;5858;43.076;25.626;2023-04-09T09:25:21;99714.88;;;15.23;36.42
11605;BME280;5858;43.076;25.626;2023-04-09T09:27:52;99723.16;;;15.22;33.89
11605;BME280;5858;43.076;25.626;2023-04-09T09:30:23;99688.66;;;14.97;34.14
11605;BME280;5858;43.076;25.626;2023-04-09T09:32:51;99727.72;;;15.28;33.64
11605;BME280;5858;43.076;25.626;2023-04-09T09:35:19;99703.63;;;15.13;33.14
11605;BME280;5858;43.076;25.626;2023-04-09T09:37:46;99712.00;;;15.38;33.36
11605;BME280;5858;43.076;25.626;2023-04-09T09:40:25;99714.47;;;15.33;32.50
11605;BME280;5858;43.076;25.626;2023-04-09T09:43:05;99710.53;;;15.35;33.43
11605;BME280;5858;43.076;25.626;2023-04-09T09:45:32;99685.22;;;15.23;33.11
11605;BME280;5858;43.076;25.626;2023-04-09T09:47:59;99699.13;;;15.47;32.60
11605;BME280;5858;43.076;25.626;2023-04-09T09:50:29;99705.63;;;15.72;31.87
11605;BME280;5858;43.076;25.626;2023-04-09T09:53:00;99713.72;;;15.92;33.65
11605;BME280;5858;43.076;25.626;2023-04-09T09:55:30;99700.66;;;15.95;31.86
11605;BME280;5858;43.076;25.626;2023-04-09T09:58:01;99677.16;;;16.02;32.27
11605;BME280;5858;43.076;25.626;2023-04-09T10:00:31;99701.91;;;16.13;32.53
11605;BME280;5858;43.076;25.626;2023-04-09T10:03:03;99696.47;;;16.19;32.71
11605;BME280;5858;43.076;25.626;2023-04-09T10:05:33;99695.22;;;16.22;30.34
11605;BME280;5858;43.076;25.626;2023-04-09T10:08:02;99683.41;;;16.16;30.50
11605;BME280;5858;43.076;25.626;2023-04-09T10:10:30;99697.09;;;16.28;29.47
11605;BME280;5858;43.076;25.626;2023-04-09T10:12:59;99679.81;;;16.42;32.05
11605;BME280;5858;43.076;25.626;2023-04-09T10:15:27;99693.28;;;16.49;30.35
11605;BME280;5858;43.076;25.626;2023-04-09T10:17:55;99671.53;;;16.24;29.86
11605;BME280;5858;43.076;25.626;2023-04-09T10:20:27;99671.75;;;16.22;30.35
11605;BME280;5858;43.076;25.626;2023-04-09T10:23:02;99682.09;;;16.38;31.14
11605;BME280;5858;43.076;25.626;2023-04-09T10:25:31;99679.56;;;16.50;30.87
11605;BME280;5858;43.076;25.626;2023-04-09T10:28:00;99656.56;;;16.28;31.37
11605;BME280;5858;43.076;25.626;2023-04-09T10:30:31;99662.31;;;16.51;31.46
11605;BME280;5858;43.076;25.626;2023-04-09T10:33:08;99670.41;;;16.64;33.72
11605;BME280;5858;43.076;25.626;2023-04-09T10:35:36;99663.72;;;16.74;32.44
11605;BME280;5858;43.076;25.626;2023-04-09T10:38:06;99656.91;;;17.03;31.80
11605;BME280;5858;43.076;25.626;2023-04-09T10:40:34;99641.28;;;17.11;32.69
11605;BME280;5858;43.076;25.626;2023-04-09T10:43:08;99648.63;;;16.97;31.99
11605;BME280;5858;43.076;25.626;2023-04-09T10:45:42;99628.44;;;17.07;33.19
11605;BME280;5858;43.076;25.626;2023-04-09T10:48:12;99628.41;;;17.38;33.91
11605;BME280;5858;43.076;25.626;2023-04-09T10:50:42;99637.00;;;17.85;32.98
11605;BME280;5858;43.076;25.626;2023-04-09T10:53:20;99643.97;;;18.17;33.27
11605;BME280;5858;43.076;25.626;2023-04-09T10:55:49;99592.91;;;17.28;33.26
11605;BME280;5858;43.076;25.626;2023-04-09T10:58:18;99618.78;;;17.42;33.42
11605;BME280;5858;43.076;25.626;2023-04-09T11:00:49;99628.09;;;17.53;32.86
11605;BME280;5858;43.076;25.626;2023-04-09T11:03:26;99642.91;;;17.44;32.82
11605;BME280;5858;43.076;25.626;2023-04-09T11:05:57;99608.31;;;17.27;31.55
11605;BME280;5858;43.076;25.626;2023-04-09T11:08:27;99629.28;;;17.32;31.85
11605;BME280;5858;43.076;25.626;2023-04-09T11:10:56;99619.84;;;17.16;33.56
11605;BME280;5858;43.076;25.626;2023-04-09T11:13:28;99595.38;;;16.53;32.47
11605;BME280;5858;43.076;25.626;2023-04-09T11:15:55;99638.72;;;16.85;32.83
11605;BME280;5858;43.076;25.626;2023-04-09T11:18:24;99601.88;;;16.90;31.98
11605;BME280;5858;43.076;25.626;2023-04-09T11:20:53;99622.69;;;17.53;32.48
11605;BME280;5858;43.076;25.626;2023-04-09T11:23:20;99615.91;;;17.69;31.66
11605;BME280;5858;43.076;25.626;2023-04-09T11:25:49;99619.38;;;17.76;32.38
11605;BME280;5858;43.076;25.626;2023-04-09T11:28:16;99577.16;;;17.43;31.73
11605;BME280;5858;43.076;25.626;2023-04-09T11:30:46;99555.66;;;16.98;31.55
11605;BME280;5858;43.076;25.626;2023-04-09T11:33:13;99615.09;;;17.12;31.47
11605;BME280;5858;43.076;25.626;2023-04-09T11:35:40;99604.31;;;16.98;30.94
11605;BME280;5858;43.076;25.626;2023-04-09T11:38:07;99614.00;;;17.44;31.35
11605;BME280;5858;43.076;25.626;2023-04-09T11:40:35;99596.25;;;17.48;31.48
11605;BME280;5858;43.076;25.626;2023-04-09T11:43:08;99596.31;;;17.73;31.21
11605;BME280;5858;43.076;25.626;2023-04-09T11:45:35;99595.13;;;17.62;30.89
11605;BME280;5858;43.076;25.626;2023-04-09T11:48:05;99601.78;;;17.67;31.46
11605;BME280;5858;43.076;25.626;2023-04-09T11:50:33;99598.41;;;17.71;31.29
11605;BME280;5858;43.076;25.626;2023-04-09T11:53:14;99548.81;;;16.96;31.07
11605;BME280;5858;43.076;25.626;2023-04-09T11:55:42;99584.44;;;17.18;31.37
11605;BME280;5858;43.076;25.626;2023-04-09T11:58:09;99593.06;;;17.33;31.13
11605;BME280;5858;43.076;25.626;2023-04-09T12:00:39;99584.00;;;17.46;31.79
11605;BME280;5858;43.076;25.626;2023-04-09T12:03:09;99580.69;;;17.44;31.67
11605;BME280;5858;43.076;25.626;2023-04-09T12:05:36;99580.53;;;17.39;31.69
11605;BME280;5858;43.076;25.626;2023-04-09T12:08:05;99529.91;;;16.96;31.71
11605;BME280;5858;43.076;25.626;2023-04-09T12:10:36;99567.56;;;17.22;32.41
11605;BME280;5858;43.076;25.626;2023-04-09T12:13:05;99578.94;;;17.06;31.68
11605;BME280;5858;43.076;25.626;2023-04-09T12:15:35;99577.88;;;17.07;32.08
11605;BME280;5858;43.076;25.626;2023-04-09T12:18:08;99575.78;;;16.78;31.32
11605;BME280;5858;43.076;25.626;2023-04-09T12:20:37;99564.75;;;16.79;30.95
11605;BME280;5858;43.076;25.626;2023-04-09T12:23:05;99553.72;;;16.81;30.77
11605;BME280;5858;43.076;25.626;2023-04-09T12:25:34;99564.91;;;16.84;30.81
11605;BME280;5858;43.076;25.626;2023-04-09T12:28:01;99530.53;;;16.66;30.79
11605;BME280;5858;43.076;25.626;2023-04-09T12:30:28;99542.25;;;16.85;31.36
11605;BME280;5858;43.076;25.626;2023-04-09T12:32:55;99561.00;;;16.80;31.41
11605;BME280;5858;43.076;25.626;2023-04-09T12:35:26;99531.59;;;16.59;31.92
11605;BME280;5858;43.076;25.626;2023-04-09T12:37:53;99555.38;;;16.82;31.58
11605;BME280;5858;43.076;25.626;2023-04-09T12:40:21;99534.88;;;16.67;31.51
11605;BME280;5858;43.076;25.626;2023-04-09T12:42:48;99529.44;;;16.74;32.28
11605;BME280;5858;43.076;25.626;2023-04-09T12:45:15;99548.25;;;16.87;31.38
11605;BME280;5858;43.076;25.626;2023-04-09T12:47:43;99542.63;;;16.89;32.21
11605;BME280;5858;43.076;25.626;2023-04-09T12:50:11;99552.94;;;16.74;31.07
11605;BME280;5858;43.076;25.626;2023-04-09T12:52:41;99505.03;;;16.49;30.44
11605;BME280;5858;43.076;25.626;2023-04-09T12:55:09;99499.84;;;16.48;30.84
11605;BME280;5858;43.076;25.626;2023-04-09T12:57:37;99539.59;;;16.79;31.69
11605;BME280;5858;43.076;25.626;2023-04-09T13:00:06;99533.22;;;16.66;30.34
11605;BME280;5858;43.076;25.626;2023-04-09T13:02:33;99547.25;;;16.82;30.18
11605;BME280;5858;43.076;25.626;2023-04-09T13:05:00;99534.06;;;17.23;31.10
11605;BME280;5858;43.076;25.626;2023-04-09T13:07:28;99517.25;;;17.40;29.78
11605;BME280;5858;43.076;25.626;2023-04-09T13:09:57;99466.28;;;17.18;29.79
11605;BME280;5858;43.076;25.626;2023-04-09T13:12:25;99496.72;;;17.14;29.75
11605;BME280;5858;43.076;25.626;2023-04-09T13:14:52;99512.38;;;17.30;29.90